Time;durP1;ratioP1;P1;durP2;ratioP2;P2;SDS_P1;SDS_P2;PMS_P1;PMS_P2;Temp;Humidity;BMP_temperature;BMP_pressure;BME280_temperature;BME280_humidity;BME280_pressure;Samples;Min_cycle;Max_cycle;Signal;HPM_P1;HPM_P2
2022/01/17 00:01:42;;;;;;;34.97;7.78;;;;;;;6.83;87.86;99737.53;4982204;28;20026;-79
2022/01/17 00:04:10;;;;;;;35.83;9.48;;;;;;;6.85;87.42;99835.59;4970183;28;20340;-77
2022/01/17 00:06:36;;;;;;;39.78;7.95;;;;;;;6.85;87.40;99765.16;4951544;28;20389;-78
2022/01/17 00:09:02;;;;;;;48.10;9.70;;;;;;;6.90;87.62;99838.28;4963780;28;20034;-77
2022/01/17 00:11:27;;;;;;;51.70;8.57;;;;;;;6.91;87.17;99858.06;4964773;28;20038;-76
2022/01/17 00:13:53;;;;;;;38.15;9.80;;;;;;;6.92;86.72;99781.94;4976286;28;20018;-77
2022/01/17 00:16:23;;;;;;;44.45;9.77;;;;;;;6.93;86.70;99778.16;4973678;28;20023;-76
2022/01/17 00:21:14;;;;;;;42.05;9.65;;;;;;;6.94;86.66;99779.75;4976496;28;20086;-77
2022/01/17 00:23:40;;;;;;;52.17;9.23;;;;;;;6.94;86.68;99839.38;4951410;28;20481;-76
2022/01/17 00:26:05;;;;;;;33.90;6.75;;;;;;;6.95;86.38;99832.03;4937360;28;20030;-79
2022/01/17 00:28:31;;;;;;;34.90;9.10;;;;;;;6.96;86.47;99853.47;4954820;28;20030;-77
2022/01/17 00:30:57;;;;;;;47.35;13.35;;;;;;;6.97;86.49;99882.16;4966158;28;20034;-76
2022/01/17 00:33:22;;;;;;;54.33;9.88;;;;;;;6.97;85.99;99871.34;4949855;28;20022;-80
2022/01/17 00:35:47;;;;;;;59.58;12.82;;;;;;;6.95;85.97;99889.75;4968390;28;20031;-76
2022/01/17 00:38:14;;;;;;;50.50;12.50;;;;;;;6.94;85.98;99858.34;4969981;28;20029;-78
2022/01/17 00:40:41;;;;;;;65.57;14.80;;;;;;;6.93;86.13;99923.63;4962825;28;20094;-76
2022/01/17 00:43:06;;;;;;;56.55;12.32;;;;;;;6.93;85.55;99864.84;4967955;28;20031;-78
2022/01/17 00:45:32;;;;;;;46.00;11.43;;;;;;;6.94;85.21;99842.06;4969966;28;20046;-77
2022/01/17 00:47:57;;;;;;;44.20;9.82;;;;;;;6.98;85.08;99883.78;4969750;28;20074;-76
2022/01/17 00:50:23;;;;;;;40.42;10.80;;;;;;;7.02;83.96;99841.53;4967196;28;20038;-76
2022/01/17 00:52:49;;;;;;;26.63;8.32;;;;;;;7.06;82.59;99868.88;4968214;28;20042;-76
2022/01/17 00:55:14;;;;;;;30.88;7.10;;;;;;;7.13;81.58;99882.16;4965885;28;20503;-76
2022/01/17 00:57:40;;;;;;;23.58;5.32;;;;;;;7.16;80.50;99900.59;4964755;28;20035;-77
2022/01/17 01:00:06;;;;;;;21.58;4.40;;;;;;;7.18;80.44;99860.47;4970147;28;20026;-77
2022/01/17 01:02:31;;;;;;;27.63;4.75;;;;;;;7.14;79.91;99833.09;4968722;28;20429;-77
2022/01/17 01:04:57;;;;;;;37.28;6.28;;;;;;;7.09;79.19;99850.19;4944308;28;20046;-76
2022/01/17 01:07:22;;;;;;;31.95;5.57;;;;;;;7.09;78.84;99884.59;4951388;28;20499;-76
2022/01/17 01:10:02;;;;;;;24.63;5.32;;;;;;;7.03;78.28;99886.50;4968246;28;20038;-77
2022/01/17 01:12:27;;;;;;;27.45;4.72;;;;;;;7.00;77.90;99887.03;4939416;28;20110;-77
2022/01/17 01:14:53;;;;;;;25.30;5.38;;;;;;;6.98;77.57;99894.63;4967523;28;20106;-78
2022/01/17 01:17:34;;;;;;;23.45;4.63;;;;;;;6.97;77.34;99919.31;4950506;28;20449;-77
2022/01/17 01:20:17;;;;;;;20.25;5.43;;;;;;;6.93;76.92;99891.94;4969605;28;20053;-76
2022/01/17 01:28:10;;;;;;;19.63;4.40;;;;;;;6.81;77.10;99872.44;4954830;28;20025;-78
2022/01/17 01:30:40;;;;;;;21.45;4.85;;;;;;;6.78;76.54;99883.81;4954775;28;20027;-77
2022/01/17 01:33:06;;;;;;;23.00;3.97;;;;;;;6.79;75.53;99885.41;4952153;28;20022;-76
2022/01/17 01:35:33;;;;;;;32.13;4.07;;;;;;;6.80;75.07;99873.53;4970981;28;20094;-77
2022/01/17 01:38:00;;;;;;;14.52;3.50;;;;;;;6.79;73.96;99885.41;4952204;28;20105;-77
2022/01/17 01:40:25;;;;;;;23.10;3.70;;;;;;;6.81;73.15;99891.38;4970677;28;20492;-76
2022/01/17 01:42:52;;;;;;;17.83;3.67;;;;;;;6.82;72.41;99898.41;4968207;28;20034;-76
2022/01/17 01:45:18;;;;;;;20.92;2.60;;;;;;;6.77;72.28;99937.19;4972740;28;21113;-77
2022/01/17 01:47:43;;;;;;;14.25;3.58;;;;;;;6.57;72.30;99910.84;4970806;28;20547;-78
2022/01/17 01:50:10;;;;;;;10.23;2.05;;;;;;;6.33;71.04;99953.88;4969124;28;20051;-78
2022/01/17 01:52:36;;;;;;;20.63;3.63;;;;;;;6.18;71.43;99978.97;4938822;28;20451;-78
2022/01/17 01:55:01;;;;;;;17.52;3.55;;;;;;;6.08;70.72;99981.63;4972134;28;20110;-78
2022/01/17 01:57:27;;;;;;;9.63;1.70;;;;;;;5.95;68.73;99968.59;4971958;28;20066;-79
2022/01/17 01:59:52;;;;;;;10.63;2.05;;;;;;;5.87;68.46;99974.50;4970426;28;20037;-79
2022/01/17 02:02:18;;;;;;;10.88;2.03;;;;;;;5.82;67.46;99969.84;4970968;28;20026;-77
2022/01/17 02:04:43;;;;;;;6.15;1.83;;;;;;;5.75;66.39;99953.84;4950187;28;20467;-77
2022/01/17 02:07:10;;;;;;;10.32;1.90;;;;;;;5.66;63.80;99950.03;4951270;28;20042;-77
2022/01/17 02:09:37;;;;;;;5.72;1.40;;;;;;;5.59;61.64;99984.56;4952504;28;20054;-76
2022/01/17 02:12:03;;;;;;;6.50;1.42;;;;;;;5.53;60.92;100007.25;4950865;28;20038;-76
2022/01/17 02:14:28;;;;;;;6.32;1.75;;;;;;;5.46;59.83;99991.25;4969861;28;20031;-77
2022/01/17 02:16:53;;;;;;;4.53;1.23;;;;;;;5.41;59.08;99980.41;4970613;28;20026;-76
2022/01/17 02:19:21;;;;;;;5.22;1.80;;;;;;;5.36;59.49;100023.63;4954417;28;20502;-76
2022/01/17 02:21:47;;;;;;;6.45;2.28;;;;;;;5.29;59.47;100018.44;4971885;28;20476;-77
2022/01/17 02:24:20;;;;;;;9.32;1.15;;;;;;;5.25;58.73;100011.91;4970057;28;20073;-76
2022/01/17 02:26:47;;;;;;;9.07;2.60;;;;;;;5.16;57.80;99994.53;4967709;28;20054;-77
2022/01/17 02:29:12;;;;;;;6.38;1.95;;;;;;;5.11;56.33;100035.03;4962437;28;20094;-77
2022/01/17 02:31:38;;;;;;;3.50;0.85;;;;;;;5.07;56.07;100050.09;4954935;28;20018;-76
2022/01/17 02:34:03;;;;;;;4.90;1.05;;;;;;;5.01;56.74;100061.94;4970022;28;20388;-76
2022/01/17 02:36:29;;;;;;;9.07;1.10;;;;;;;4.94;56.36;100050.50;4971072;28;20085;-76
2022/01/17 02:38:55;;;;;;;8.00;1.65;;;;;;;4.88;56.17;100020.78;4954775;28;20384;-76
2022/01/17 02:41:20;;;;;;;12.32;1.20;;;;;;;4.81;55.55;100012.03;4953884;28;20100;-76
2022/01/17 02:43:47;;;;;;;4.38;1.08;;;;;;;4.74;55.23;100057.31;4958398;28;20097;-75
2022/01/17 02:48:39;;;;;;;10.40;1.98;;;;;;;4.54;56.07;100066.00;4953507;28;20049;-75
2022/01/17 02:51:04;;;;;;;3.85;0.95;;;;;;;4.46;54.69;100098.84;4958378;28;20062;-78
2022/01/17 02:53:29;;;;;;;1.88;0.73;;;;;;;4.38;54.31;100065.00;4954312;28;20082;-77
2022/01/17 02:56:00;;;;;;;4.82;0.73;;;;;;;4.32;53.64;100094.88;4973888;28;20038;-76
2022/01/17 02:58:27;;;;;;;6.15;1.02;;;;;;;4.26;53.61;100055.41;4959353;28;20049;-76
2022/01/17 03:00:55;;;;;;;1.98;0.60;;;;;;;4.22;52.72;100103.63;4972191;28;20057;-75
2022/01/17 03:03:21;;;;;;;2.10;0.90;;;;;;;4.18;52.48;100110.59;4975237;28;20023;-76
2022/01/17 03:05:48;;;;;;;0.55;0.52;;;;;;;4.11;51.43;100113.47;4970184;28;20045;-75
2022/01/17 03:08:15;;;;;;;1.90;0.68;;;;;;;4.05;51.78;100129.81;4974883;28;20031;-75
2022/01/17 03:10:43;;;;;;;7.00;0.80;;;;;;;3.99;52.09;100158.59;4955085;28;20413;-76
2022/01/17 03:13:17;;;;;;;4.78;0.90;;;;;;;3.92;52.16;100161.44;4942982;28;20065;-75
2022/01/17 03:15:44;;;;;;;7.72;1.23;;;;;;;3.88;52.53;100170.28;4974494;28;20424;-76
2022/01/17 03:18:10;;;;;;;5.28;0.82;;;;;;;3.82;51.80;100141.59;4955434;28;20353;-76
2022/01/17 03:20:37;;;;;;;5.10;0.98;;;;;;;3.78;50.88;100162.84;4958716;28;20027;-75
2022/01/17 03:23:02;;;;;;;5.35;1.65;;;;;;;3.73;50.86;100154.66;4956303;28;20031;-75
2022/01/17 03:25:28;;;;;;;1.60;0.68;;;;;;;3.70;50.93;100188.31;4976232;28;20449;-77
2022/01/17 03:27:53;;;;;;;2.65;0.93;;;;;;;3.65;50.76;100185.53;4975235;28;20026;-77
2022/01/17 03:30:19;;;;;;;4.45;1.20;;;;;;;3.65;51.14;100222.44;4973043;28;20080;-75
2022/01/17 03:32:44;;;;;;;4.28;1.98;;;;;;;3.65;51.77;100206.28;4957627;28;20027;-75
2022/01/17 03:35:10;;;;;;;6.38;1.30;;;;;;;3.65;50.97;100217.88;4958739;28;20037;-75
2022/01/17 03:37:35;;;;;;;6.00;1.05;;;;;;;3.62;52.00;100223.75;4957209;28;20066;-75
2022/01/17 03:40:01;;;;;;;2.95;1.00;;;;;;;3.60;51.36;100246.59;4974170;28;20035;-75
2022/01/17 03:42:26;;;;;;;3.65;0.60;;;;;;;3.60;51.36;100260.09;4966917;28;20037;-75
2022/01/17 03:44:51;;;;;;;10.25;1.65;;;;;;;3.56;51.86;100206.66;4935105;28;20065;-75
2022/01/17 03:47:17;;;;;;;1.48;0.77;;;;;;;3.55;51.45;100226.59;4973683;28;20053;-75
2022/01/17 03:49:42;;;;;;;3.80;1.00;;;;;;;3.57;50.45;100274.84;4958905;28;20051;-75
2022/01/17 03:52:08;;;;;;;1.80;0.50;;;;;;;3.56;51.94;100273.22;4957756;28;20027;-75
2022/01/17 03:54:34;;;;;;;6.25;1.45;;;;;;;3.52;52.00;100264.00;4959397;28;20031;-75
2022/01/17 03:56:59;;;;;;;4.38;0.88;;;;;;;3.50;52.21;100266.91;4956662;28;20395;-75
2022/01/17 03:59:24;;;;;;;3.65;1.17;;;;;;;3.49;52.24;100267.16;4941281;28;20042;-75
2022/01/17 04:01:50;;;;;;;5.55;1.13;;;;;;;3.49;52.80;100297.63;4972582;28;20029;-76
2022/01/17 04:04:15;;;;;;;1.77;1.05;;;;;;;3.44;53.11;100302.91;4974531;28;20102;-75
2022/01/17 04:06:42;;;;;;;3.58;1.13;;;;;;;3.42;53.54;100318.50;4971954;28;20022;-76
2022/01/17 04:09:07;;;;;;;2.35;0.57;;;;;;;3.41;53.01;100319.56;4971027;28;20555;-76
2022/01/17 04:11:32;;;;;;;7.60;0.88;;;;;;;3.42;53.23;100326.59;4972929;28;20034;-75
2022/01/17 04:13:58;;;;;;;3.53;1.25;;;;;;;3.43;53.49;100343.56;4959913;28;20065;-75
2022/01/17 04:16:23;;;;;;;3.45;1.30;;;;;;;3.42;53.73;100320.38;4970718;28;20360;-76
2022/01/17 04:18:49;;;;;;;3.35;1.30;;;;;;;3.41;53.87;100354.59;4955509;28;20027;-75
2022/01/17 04:21:14;;;;;;;6.72;1.48;;;;;;;3.41;54.29;100357.28;4972793;28;20678;-76
2022/01/17 04:23:40;;;;;;;4.25;1.15;;;;;;;3.41;54.76;100389.63;4976304;28;20365;-76
2022/01/17 04:26:05;;;;;;;9.00;2.20;;;;;;;3.43;56.07;100392.06;4956014;28;20031;-75
2022/01/17 04:28:31;;;;;;;8.90;1.42;;;;;;;3.45;55.07;100363.81;4957247;28;20487;-75
2022/01/17 04:30:59;;;;;;;5.97;1.60;;;;;;;3.50;53.36;100374.72;4956878;28;20026;-75
2022/01/17 04:33:24;;;;;;;3.40;1.10;;;;;;;3.54;52.60;100394.75;4961876;28;20037;-75
2022/01/17 04:35:49;;;;;;;6.95;1.45;;;;;;;3.51;52.00;100400.59;4957051;28;20483;-75
2022/01/17 04:38:18;;;;;;;4.72;0.90;;;;;;;3.49;51.90;100391.97;4973221;28;20026;-76
2022/01/17 04:40:47;;;;;;;6.18;1.27;;;;;;;3.51;51.68;100437.53;4954343;28;20023;-75
2022/01/17 04:43:44;;;;;;;3.30;0.88;;;;;;;3.51;51.82;100421.34;4954047;28;20026;-75
2022/01/17 04:45:58;;;;;;;6.90;1.20;;;;;;;3.51;51.68;100465.28;4970484;28;20395;-75
2022/01/17 04:48:25;;;;;;;4.45;1.33;;;;;;;3.49;51.88;100435.06;4972064;28;20054;-76
2022/01/17 04:50:51;;;;;;;6.10;1.30;;;;;;;3.49;51.50;100436.94;4965994;28;20109;-76
2022/01/17 04:53:19;;;;;;;6.50;1.45;;;;;;;3.49;51.55;100443.16;4974150;28;20447;-75
2022/01/17 04:55:44;;;;;;;7.10;2.22;;;;;;;3.49;51.73;100435.06;4972172;28;20511;-77
2022/01/17 04:58:10;;;;;;;3.85;0.80;;;;;;;3.49;50.61;100472.81;4972743;28;20034;-75
2022/01/17 05:00:35;;;;;;;5.45;1.00;;;;;;;3.48;50.78;100476.53;4971262;28;20027;-75
2022/01/17 05:03:01;;;;;;;4.65;1.85;;;;;;;3.46;50.30;100462.47;4969549;28;20023;-75
2022/01/17 05:05:26;;;;;;;8.07;1.45;;;;;;;3.47;50.36;100431.78;4972077;28;20031;-76
2022/01/17 05:07:52;;;;;;;4.07;1.10;;;;;;;3.47;50.21;100495.66;4956053;28;20022;-75
2022/01/17 05:10:18;;;;;;;5.82;1.30;;;;;;;3.49;49.02;100524.00;4955964;28;20031;-75
2022/01/17 05:12:43;;;;;;;6.88;1.73;;;;;;;3.47;49.57;100515.34;4956107;28;20030;-77
2022/01/17 05:15:18;;;;;;;5.38;1.45;;;;;;;3.46;50.52;100505.59;4952580;29;20034;-76
2022/01/17 05:17:56;;;;;;;8.30;1.35;;;;;;;3.46;50.46;100548.72;4967510;28;20077;-75
2022/01/17 05:20:21;;;;;;;5.25;1.05;;;;;;;3.46;49.90;100524.44;4970603;28;20030;-75
2022/01/17 05:22:46;;;;;;;3.92;0.93;;;;;;;3.45;49.26;100517.44;4955309;28;20097;-75
2022/01/17 05:25:12;;;;;;;5.57;1.20;;;;;;;3.45;49.89;100536.28;4970958;28;20034;-75
2022/01/17 05:27:38;;;;;;;6.10;1.77;;;;;;;3.44;50.18;100560.81;4973619;28;20396;-75
2022/01/17 05:30:05;;;;;;;3.28;1.25;;;;;;;3.45;49.33;100514.75;4951750;29;20023;-75
2022/01/17 05:32:30;;;;;;;5.00;1.20;;;;;;;3.44;49.28;100561.63;4951805;28;20165;-75
2022/01/17 05:34:56;;;;;;;5.15;1.40;;;;;;;3.43;49.26;100554.56;4970959;28;20031;-76
2022/01/17 05:37:21;;;;;;;7.43;1.38;;;;;;;3.42;49.42;100552.94;4980111;28;20045;-76
2022/01/17 05:39:47;;;;;;;2.50;0.60;;;;;;;3.42;49.01;100536.75;4970512;28;20035;-75
2022/01/17 05:42:17;;;;;;;11.73;1.40;;;;;;;3.43;49.88;100597.69;4969454;28;20384;-75
2022/01/17 05:44:44;;;;;;;3.30;1.00;;;;;;;3.44;49.63;100583.19;4971099;28;20102;-74
2022/01/17 05:47:09;;;;;;;4.47;1.23;;;;;;;3.47;49.51;100536.06;4973417;28;20106;-75
2022/01/17 05:49:35;;;;;;;6.07;1.10;;;;;;;3.45;49.06;100582.09;4969659;28;20535;-76
2022/01/17 05:52:00;;;;;;;3.38;0.70;;;;;;;3.43;49.63;100605.75;4948223;28;20174;-76
2022/01/17 05:54:26;;;;;;;5.82;0.82;;;;;;;3.44;49.59;100645.16;4968237;28;20476;-76
2022/01/17 05:56:51;;;;;;;6.22;1.73;;;;;;;3.43;48.93;100603.06;4968784;28;20030;-76
2022/01/17 05:59:16;;;;;;;5.70;1.42;;;;;;;3.46;48.08;100628.75;4973280;28;20037;-75
2022/01/17 06:01:44;;;;;;;9.00;1.23;;;;;;;3.46;48.48;100661.91;4953226;28;20469;-75
2022/01/17 06:04:09;;;;;;;2.63;0.88;;;;;;;3.44;49.74;100642.47;4968282;28;20031;-76
2022/01/17 06:06:35;;;;;;;1.95;0.65;;;;;;;3.45;49.10;100660.25;4980875;28;20399;-76
2022/01/17 06:09:00;;;;;;;7.32;1.95;;;;;;;3.44;50.13;100680.19;4956777;28;20035;-75
2022/01/17 06:11:25;;;;;;;2.92;1.17;;;;;;;3.45;49.40;100644.09;4972392;28;20095;-76
2022/01/17 06:13:51;;;;;;;11.35;0.88;;;;;;;3.45;48.13;100675.63;4971651;28;20018;-76
2022/01/17 06:16:16;;;;;;;5.18;1.33;;;;;;;3.46;47.97;100683.47;4971651;28;20023;-77
2022/01/17 06:18:42;;;;;;;7.10;1.67;;;;;;;3.43;48.85;100656.97;4950958;28;20027;-77
2022/01/17 06:21:07;;;;;;;4.38;0.85;;;;;;;3.44;49.92;100663.22;4974832;28;20030;-76
2022/01/17 06:23:32;;;;;;;1.80;0.93;;;;;;;3.45;49.34;100668.34;4974100;28;20030;-76
2022/01/17 06:25:58;;;;;;;7.78;1.23;;;;;;;3.47;48.52;100711.25;4973840;28;20484;-76
2022/01/17 06:28:23;;;;;;;3.30;0.63;;;;;;;3.46;48.19;100694.22;4972616;28;20023;-76
2022/01/17 06:30:50;;;;;;;4.40;1.13;;;;;;;3.46;47.77;100725.75;4954361;28;20068;-76
2022/01/17 06:33:15;;;;;;;2.45;0.60;;;;;;;3.45;48.03;100754.59;4973518;28;20033;-76
2022/01/17 06:35:41;;;;;;;6.53;0.98;;;;;;;3.45;48.07;100799.59;4970479;28;20380;-77
2022/01/17 06:38:06;;;;;;;6.53;1.58;;;;;;;3.42;48.06;100791.97;4976115;28;20031;-78
2022/01/17 06:40:31;;;;;;;5.20;1.42;;;;;;;3.41;48.30;100798.38;4973478;28;20033;-77
2022/01/17 06:42:57;;;;;;;2.47;0.70;;;;;;;3.40;47.98;100738.28;4976193;28;20097;-77
2022/01/17 06:45:22;;;;;;;18.65;2.40;;;;;;;3.41;47.60;100831.56;4970230;28;20025;-76
2022/01/17 06:47:48;;;;;;;9.07;1.42;;;;;;;3.40;48.49;100846.06;4975127;28;20472;-75
2022/01/17 06:50:13;;;;;;;8.30;1.23;;;;;;;3.41;49.18;100836.97;4974620;28;20058;-77
2022/01/17 06:52:38;;;;;;;8.40;1.60;;;;;;;3.39;49.68;100833.66;4973250;28;20431;-78
2022/01/17 06:55:07;;;;;;;5.32;0.93;;;;;;;3.39;49.54;100828.25;4971232;28;20488;-76
2022/01/17 06:57:33;;;;;;;4.18;1.00;;;;;;;3.39;48.72;100822.88;4942788;28;20030;-77
2022/01/17 06:59:58;;;;;;;2.92;0.70;;;;;;;3.42;48.42;100835.91;4982890;28;20109;-76
2022/01/17 07:02:23;;;;;;;11.05;2.33;;;;;;;3.40;48.78;100831.78;4953091;28;20035;-76
2022/01/17 07:04:49;;;;;;;1.85;0.43;;;;;;;3.41;49.21;100826.19;4974528;28;20030;-76
2022/01/17 07:07:14;;;;;;;5.05;1.20;;;;;;;3.43;50.20;100837.53;4940870;28;20026;-76
2022/01/17 07:09:41;;;;;;;9.43;0.85;;;;;;;3.42;50.68;100849.38;4954951;28;20055;-76
2022/01/17 07:12:07;;;;;;;3.33;1.38;;;;;;;3.39;50.99;100865.19;4956951;28;20480;-77
2022/01/17 07:14:32;;;;;;;3.97;0.68;;;;;;;3.41;50.19;100872.00;4959574;28;20038;-76
2022/01/17 07:16:58;;;;;;;11.35;2.15;;;;;;;3.42;49.25;100876.31;4953397;28;20023;-77
2022/01/17 07:19:23;;;;;;;10.63;1.02;;;;;;;3.41;48.98;100855.81;4941738;28;20026;-77
2022/01/17 07:21:49;;;;;;;6.53;0.90;;;;;;;3.40;48.67;100881.09;4956162;28;20081;-76
2022/01/17 07:24:15;;;;;;;4.97;0.95;;;;;;;3.41;49.40;100904.31;4955948;28;20035;-77
2022/01/17 07:26:40;;;;;;;9.55;1.48;;;;;;;3.42;48.84;100892.50;4973186;28;20030;-77
2022/01/17 07:29:08;;;;;;;1.33;0.68;;;;;;;3.40;48.88;100889.19;4958560;28;20541;-76
2022/01/17 07:31:34;;;;;;;4.22;0.52;;;;;;;3.39;48.74;100874.06;4956775;28;20560;-76
2022/01/17 07:33:59;;;;;;;3.20;1.00;;;;;;;3.38;48.83;100890.47;4975057;28;20105;-76
2022/01/17 07:36:25;;;;;;;2.83;0.88;;;;;;;3.38;49.61;100912.84;4956504;28;20401;-76
2022/01/17 07:38:50;;;;;;;3.40;1.17;;;;;;;3.40;50.28;100935.00;4955473;28;20026;-76
2022/01/17 07:41:15;;;;;;;3.50;1.13;;;;;;;3.43;48.84;100906.78;4972114;28;20085;-76
2022/01/17 07:43:42;;;;;;;9.10;0.95;;;;;;;3.43;49.45;100929.16;4956235;28;20476;-76
2022/01/17 07:46:17;;;;;;;5.65;1.15;;;;;;;3.40;49.91;100991.59;4969057;28;20780;-78
2022/01/17 07:51:27;;;;;;;8.23;1.45;;;;;;;3.45;50.61;100985.56;4966543;28;20049;-76
2022/01/17 07:53:53;;;;;;;4.25;1.27;;;;;;;3.46;51.16;100996.09;4971765;28;20461;-76
2022/01/17 07:56:18;;;;;;;3.00;0.60;;;;;;;3.44;51.13;100979.34;4956615;28;20050;-76
2022/01/17 07:58:44;;;;;;;6.45;1.52;;;;;;;3.47;49.99;101013.94;4972577;28;20038;-75
2022/01/17 08:01:10;;;;;;;4.82;1.10;;;;;;;3.51;50.90;101004.34;4957528;28;20029;-76
2022/01/17 08:03:35;;;;;;;4.07;1.15;;;;;;;3.52;51.29;101006.00;4977462;28;20034;-78
2022/01/17 08:06:00;;;;;;;5.57;1.20;;;;;;;3.54;51.32;101003.91;4969460;28;20465;-76
2022/01/17 08:08:26;;;;;;;4.53;1.52;;;;;;;3.56;51.36;101011.78;4973833;28;20472;-77
2022/01/17 08:10:51;;;;;;;7.75;1.67;;;;;;;3.59;51.46;101015.91;4972633;28;20669;-75
2022/01/17 08:13:18;;;;;;;12.07;2.20;;;;;;;3.60;51.63;101034.56;4953951;28;20023;-75
2022/01/17 08:15:45;;;;;;;2.92;0.82;;;;;;;3.63;51.53;101012.53;4965936;28;20027;-77
2022/01/17 08:18:10;;;;;;;7.15;1.75;;;;;;;3.66;51.12;101001.31;4956601;28;20074;-76
2022/01/17 08:20:36;;;;;;;8.68;1.20;;;;;;;3.67;51.40;101029.09;4941302;28;20034;-77
2022/01/17 08:23:01;;;;;;;5.75;1.15;;;;;;;3.69;51.79;101021.63;4937606;28;20085;-76
2022/01/17 08:25:27;;;;;;;12.15;1.50;;;;;;;3.69;52.30;101032.41;4971957;28;20034;-75
2022/01/17 08:27:52;;;;;;;6.60;1.27;;;;;;;3.70;52.77;101017.88;4971811;28;20026;-77
2022/01/17 08:30:17;;;;;;;6.00;0.90;;;;;;;3.72;51.75;101002.28;4972566;28;20037;-76
2022/01/17 08:32:43;;;;;;;6.55;1.63;;;;;;;3.74;51.41;100997.50;4919919;28;20019;-76
2022/01/17 08:35:09;;;;;;;5.25;1.48;;;;;;;3.77;51.08;101048.31;4954144;28;20391;-77
2022/01/17 08:37:34;;;;;;;4.93;1.42;;;;;;;3.77;51.75;101051.00;4971757;28;20022;-76
2022/01/17 08:40:00;;;;;;;7.25;1.33;;;;;;;3.79;52.31;101081.25;4969650;28;20035;-75
2022/01/17 08:42:26;;;;;;;6.93;1.75;;;;;;;3.80;52.60;101066.72;4951635;28;20098;-76
2022/01/17 08:44:51;;;;;;;7.88;2.42;;;;;;;3.83;52.14;101076.25;4938064;28;20373;-76
2022/01/17 08:47:17;;;;;;;10.68;1.35;;;;;;;3.85;52.24;101107.34;4946766;28;20129;-76
2022/01/17 08:49:43;;;;;;;5.97;1.15;;;;;;;3.85;52.74;101099.25;4953156;28;20046;-76
2022/01/17 08:52:09;;;;;;;8.32;1.45;;;;;;;3.87;52.36;101126.00;4968204;28;20046;-76
2022/01/17 08:54:35;;;;;;;3.65;1.15;;;;;;;3.88;52.47;101139.25;4949373;28;20030;-76
2022/01/17 08:57:00;;;;;;;5.45;1.70;;;;;;;3.91;52.12;101138.00;4966386;28;20026;-75
2022/01/17 08:59:28;;;;;;;6.13;1.48;;;;;;;3.94;52.15;101159.94;4975826;28;20992;-75
2022/01/17 09:01:54;;;;;;;4.45;1.27;;;;;;;3.96;51.98;101154.34;4932525;28;20062;-76
2022/01/17 09:04:19;;;;;;;7.15;1.73;;;;;;;3.96;52.15;101144.38;4968332;28;20046;-75
2022/01/17 09:06:45;;;;;;;4.32;0.68;;;;;;;3.97;52.07;101180.28;4954974;28;20030;-75
2022/01/17 09:09:10;;;;;;;8.63;1.45;;;;;;;3.98;52.25;101158.47;4967226;28;20641;-76
2022/01/17 09:11:35;;;;;;;10.68;1.60;;;;;;;3.99;52.35;101205.97;4953430;28;20053;-75
2022/01/17 09:14:01;;;;;;;2.17;0.57;;;;;;;3.99;51.89;101203.28;4941582;28;20451;-76
2022/01/17 09:16:26;;;;;;;6.90;1.67;;;;;;;4.02;52.23;101204.72;4970145;28;20022;-75
2022/01/17 09:18:52;;;;;;;8.88;2.15;;;;;;;4.03;51.98;101210.94;4955018;28;20031;-74
2022/01/17 09:21:17;;;;;;;9.40;2.15;;;;;;;4.04;51.75;101239.56;4953790;28;20053;-75
2022/01/17 09:23:42;;;;;;;3.60;0.95;;;;;;;4.05;52.10;101195.34;4956233;28;20027;-75
2022/01/17 09:26:08;;;;;;;5.45;1.85;;;;;;;4.07;51.38;101223.78;4951571;28;20030;-75
2022/01/17 09:28:33;;;;;;;6.85;1.58;;;;;;;4.10;50.41;101195.53;4967831;28;20490;-75
2022/01/17 09:30:59;;;;;;;7.05;1.40;;;;;;;4.12;50.72;101204.22;4972429;28;20450;-76
2022/01/17 09:33:25;;;;;;;7.95;1.00;;;;;;;4.12;50.21;101209.59;4941607;28;20029;-75
2022/01/17 09:35:51;;;;;;;3.05;1.10;;;;;;;4.12;49.75;101241.97;4966039;28;20069;-75
2022/01/17 09:38:18;;;;;;;8.55;1.10;;;;;;;4.12;49.78;101236.59;4964256;28;20035;-75
2022/01/17 09:40:43;;;;;;;8.65;2.40;;;;;;;4.12;49.87;101248.22;4954838;28;20034;-76
2022/01/17 09:43:08;;;;;;;3.00;0.88;;;;;;;4.15;49.98;101269.38;4969499;28;20431;-75
2022/01/17 09:45:34;;;;;;;3.13;1.52;;;;;;;4.16;49.99;101281.81;4954002;28;20029;-76
2022/01/17 09:48:01;;;;;;;8.20;1.60;;;;;;;4.18;49.76;101295.91;4954198;28;20027;-76
2022/01/17 09:50:34;;;;;;;9.23;1.50;;;;;;;4.19;49.88;101307.53;4954432;28;20061;-75
2022/01/17 09:52:59;;;;;;;6.60;1.50;;;;;;;4.21;50.47;101317.06;4969709;28;20027;-75
2022/01/17 09:55:26;;;;;;;8.88;1.30;;;;;;;4.23;50.58;101319.56;4935806;28;20499;-75
2022/01/17 09:58:06;;;;;;;3.72;1.25;;;;;;;4.27;50.55;101328.84;4948188;28;20031;-75
2022/01/17 10:00:37;;;;;;;2.38;1.20;;;;;;;4.28;50.18;101310.78;4969058;28;20065;-75
2022/01/17 10:03:07;;;;;;;6.75;1.60;;;;;;;4.31;50.00;101348.13;4973664;28;20034;-76
2022/01/17 10:05:33;;;;;;;5.78;1.10;;;;;;;4.31;50.41;101332.78;4968623;28;20341;-76
2022/01/17 10:08:00;;;;;;;2.85;1.02;;;;;;;4.33;50.24;101354.97;4952180;28;20110;-76
2022/01/17 10:11:00;;;;;;;6.95;0.90;;;;;;;4.34;50.57;101359.34;4953683;28;20488;-76
2022/01/17 10:13:25;;;;;;;3.25;1.23;;;;;;;4.37;49.77;101348.09;4966350;28;20077;-76
2022/01/17 10:16:11;;;;;;;5.43;1.27;;;;;;;4.40;50.19;101360.34;4953903;28;20492;-75
2022/01/17 10:18:58;;;;;;;5.70;1.45;;;;;;;4.39;51.34;101358.66;4928785;28;20030;-75
2022/01/17 10:21:33;;;;;;;4.45;1.10;;;;;;;4.41;51.14;101380.88;4946869;28;20063;-76
2022/01/17 10:37:14;;;;;;;3.90;1.50;;;;;;;4.54;51.66;101461.81;4930274;29;20098;-75
2022/01/17 10:40:02;;;;;;;5.45;1.85;;;;;;;4.56;51.87;101475.09;4944270;28;20031;-75
2022/01/17 10:42:34;;;;;;;5.00;1.35;;;;;;;4.58;52.55;101446.84;4959024;28;20035;-76
2022/01/17 10:45:02;;;;;;;;;;;;;;;4.62;51.31;101458.84;4936583;28;20391;-75
2022/01/17 10:47:27;;;;;;;9.98;1.38;;;;;;;4.61;52.22;101457.19;4970207;28;20299;-75
2022/01/17 10:49:55;;;;;;;5.03;1.27;;;;;;;4.61;52.09;101467.16;4938348;28;20468;-76
2022/01/17 10:52:27;;;;;;;6.10;1.25;;;;;;;4.62;51.88;101512.03;4962248;28;20026;-76
2022/01/17 10:55:20;;;;;;;3.00;1.20;;;;;;;4.63;51.10;101489.38;4968681;28;20027;-76
2022/01/17 10:57:48;;;;;;;3.70;0.55;;;;;;;4.65;51.24;101484.59;4950858;28;20388;-75
2022/01/17 11:00:16;;;;;;;4.97;1.00;;;;;;;4.66;51.05;101494.34;4970895;28;20027;-76
2022/01/17 11:02:53;;;;;;;8.65;1.27;;;;;;;4.66;51.75;101502.44;4963944;28;20042;-77
2022/01/17 11:05:21;;;;;;;4.80;0.93;;;;;;;4.67;51.73;101499.53;4946451;28;20034;-75
2022/01/17 11:07:47;;;;;;;3.35;0.90;;;;;;;4.67;51.73;101509.50;4968767;28;20026;-76
2022/01/17 11:10:17;;;;;;;5.60;1.85;;;;;;;4.68;52.02;101516.56;4974921;28;20066;-75
2022/01/17 11:12:42;;;;;;;10.43;1.40;;;;;;;4.70;52.04;101530.69;4951538;28;20035;-76
2022/01/17 11:15:10;;;;;;;8.80;2.05;;;;;;;4.71;52.81;101528.81;4973152;28;20041;-77
2022/01/17 11:17:38;;;;;;;4.60;1.15;;;;;;;4.72;53.05;101492.63;4957844;28;20039;-78
2022/01/17 11:20:08;;;;;;;6.85;1.15;;;;;;;4.72;52.22;101541.25;4959243;28;20531;-83
2022/01/17 11:22:38;;;;;;;10.18;1.65;;;;;;;4.76;52.40;101551.41;4960810;28;20379;-78
2022/01/17 11:25:05;;;;;;;7.30;0.80;;;;;;;4.76;52.74;101556.81;4945416;28;20029;-78
2022/01/17 11:27:30;;;;;;;9.07;1.35;;;;;;;4.79;53.04;101532.06;4947332;28;20031;-74
2022/01/17 11:29:56;;;;;;;7.45;1.52;;;;;;;4.79;52.88;101529.38;4944880;28;20030;-77
2022/01/17 11:32:22;;;;;;;7.03;1.30;;;;;;;4.79;52.55;101548.28;4935031;28;20039;-77
2022/01/17 11:34:49;;;;;;;14.20;1.52;;;;;;;4.81;52.86;101562.41;4972293;28;20030;-77
2022/01/17 11:37:14;;;;;;;8.57;1.42;;;;;;;4.83;53.34;101575.72;4968672;28;20039;-77
2022/01/17 11:39:47;;;;;;;12.68;2.08;;;;;;;4.83;53.18;101595.44;4941689;28;20023;-77
2022/01/17 11:42:34;;;;;;;6.85;1.75;;;;;;;4.87;53.08;101609.34;4951852;28;20099;-77
2022/01/17 11:45:00;;;;;;;5.90;1.40;;;;;;;4.88;52.97;101606.44;4971039;28;20046;-76
2022/01/17 11:47:46;;;;;;;11.80;1.30;;;;;;;4.89;53.40;101594.59;4945364;28;20405;-77
2022/01/17 11:50:33;;;;;;;8.13;1.40;;;;;;;4.93;53.63;101607.66;4955226;28;20106;-76
2022/01/17 11:53:00;;;;;;;7.72;1.50;;;;;;;4.95;53.41;101600.16;4970729;28;20027;-77
2022/01/17 11:55:38;;;;;;;6.63;1.17;;;;;;;4.96;53.37;101593.72;4936686;28;20024;-76
2022/01/17 11:58:25;;;;;;;9.40;1.52;;;;;;;4.98;52.82;101630.28;4954536;28;20058;-76
2022/01/17 12:00:56;;;;;;;7.90;1.75;;;;;;;5.01;53.01;101602.00;4953116;28;20023;-76